createdAt,value
2023-02-13T00:00:46.616Z,8.80
2023-02-13T00:03:15.784Z,7.97
2023-02-13T00:05:43.524Z,8.18
2023-02-13T00:08:11.233Z,7.93
2023-02-13T00:10:38.949Z,8.38
2023-02-13T00:13:06.627Z,8.77
2023-02-13T00:15:34.355Z,8.23
2023-02-13T00:18:02.884Z,7.95
2023-02-13T00:20:31.977Z,8.70
2023-02-13T00:23:00.036Z,8.38
2023-02-13T00:25:27.806Z,7.97
2023-02-13T00:27:55.641Z,7.97
2023-02-13T00:30:23.693Z,7.72
2023-02-13T00:32:52.329Z,7.35
2023-02-13T00:35:20.063Z,6.30
2023-02-13T00:37:49.128Z,7.82
2023-02-13T00:40:16.820Z,7.20
2023-02-13T00:42:44.508Z,6.18
2023-02-13T00:45:12.202Z,6.78
2023-02-13T00:47:39.839Z,6.60
2023-02-13T00:50:08.381Z,7.00
2023-02-13T00:52:37.570Z,7.30
2023-02-13T00:55:07.444Z,6.18
2023-02-13T00:57:37.283Z,6.13
2023-02-13T01:00:05.847Z,6.68
2023-02-13T01:02:36.202Z,6.07
2023-02-13T01:05:04.064Z,6.78
2023-02-13T01:07:31.775Z,5.97
2023-02-13T01:09:59.446Z,5.97
2023-02-13T01:12:29.386Z,6.95
2023-02-13T01:14:57.122Z,6.35
2023-02-13T01:17:24.763Z,5.85
2023-02-13T01:19:55.523Z,5.90
2023-02-13T01:22:23.629Z,6.53
2023-02-13T01:24:51.371Z,5.43
2023-02-13T01:27:19.168Z,7.85
2023-02-13T01:29:48.184Z,7.03
2023-02-13T01:32:15.930Z,7.15
2023-02-13T01:34:43.573Z,7.55
2023-02-13T01:37:12.212Z,7.05
2023-02-13T01:39:39.929Z,7.78
2023-02-13T01:42:16.812Z,8.52
2023-02-13T01:44:51.615Z,7.57
2023-02-13T01:47:25.574Z,6.97
2023-02-13T01:50:02.780Z,8.38
2023-02-13T01:52:31.741Z,7.38
2023-02-13T01:54:59.485Z,5.82
2023-02-13T01:57:29.769Z,7.57
2023-02-13T02:00:03.696Z,7.72
2023-02-13T02:02:51.223Z,6.93
2023-02-13T02:05:24.072Z,6.38
2023-02-13T02:07:52.447Z,6.90
2023-02-13T02:10:23.927Z,7.10
2023-02-13T02:12:59.326Z,7.70
2023-02-13T02:17:57.276Z,7.57
2023-02-13T02:20:43.385Z,5.75
2023-02-13T02:23:46.366Z,5.32
2023-02-13T02:26:52.381Z,7.20
2023-02-13T02:29:48.177Z,6.78
2023-02-13T02:32:50.143Z,6.93
2023-02-13T02:35:28.540Z,8.38
2023-02-13T02:38:24.899Z,6.97
2023-02-13T02:41:03.337Z,6.97
2023-02-13T02:43:52.196Z,7.50
2023-02-13T02:46:28.729Z,7.65
2023-02-13T02:51:57.279Z,6.80
2023-02-13T02:54:49.409Z,8.93
2023-02-13T02:57:23.409Z,7.60
2023-02-13T03:00:15.484Z,8.43
2023-02-13T03:05:50.038Z,8.48
2023-02-13T03:08:39.728Z,8.32
2023-02-13T03:11:24.986Z,11.00
2023-02-13T03:13:54.304Z,10.85
2023-02-13T03:16:43.168Z,8.85
2023-02-13T03:19:35.010Z,9.38
2023-02-13T03:22:23.564Z,9.65
2023-02-13T03:25:01.472Z,8.35
2023-02-13T03:27:57.124Z,9.38
2023-02-13T03:30:37.986Z,10.45
2023-02-13T03:33:19.277Z,8.85
2023-02-13T03:36:08.922Z,9.30
2023-02-13T03:38:47.522Z,10.13
2023-02-13T03:41:21.109Z,9.07
2023-02-13T03:44:04.991Z,10.57
2023-02-13T03:46:36.836Z,9.82
2023-02-13T03:49:25.309Z,10.10
2023-02-13T03:51:58.870Z,9.32
2023-02-13T03:54:51.152Z,9.65
2023-02-13T03:57:39.265Z,10.25
2023-02-13T04:00:12.175Z,10.50
2023-02-13T04:02:53.450Z,10.93
2023-02-13T04:05:25.436Z,10.15
2023-02-13T04:07:53.322Z,10.73
2023-02-13T04:10:25.954Z,10.00
2023-02-13T04:13:02.090Z,10.57
2023-02-13T04:15:36.663Z,9.35
2023-02-13T04:18:10.873Z,8.57
2023-02-13T04:20:39.388Z,8.93
2023-02-13T04:23:08.992Z,10.93
2023-02-13T04:25:40.406Z,9.80
2023-02-13T04:28:08.355Z,9.48
2023-02-13T04:30:36.105Z,8.77
2023-02-13T04:33:04.046Z,9.57
2023-02-13T04:35:31.815Z,7.78
2023-02-13T04:37:59.763Z,8.15
2023-02-13T04:40:27.436Z,8.93
2023-02-13T04:42:56.818Z,10.05
2023-02-13T04:45:24.483Z,10.25
2023-02-13T04:47:53.088Z,8.43
2023-02-13T04:50:21.068Z,9.07
2023-02-13T04:52:48.944Z,7.80
2023-02-13T04:55:16.680Z,7.53
2023-02-13T04:57:44.328Z,6.93
2023-02-13T05:00:14.627Z,7.93
2023-02-13T05:02:42.286Z,7.72
2023-02-13T05:05:09.997Z,8.20
2023-02-13T05:07:37.648Z,7.78
2023-02-13T05:10:06.077Z,7.18
2023-02-13T05:12:33.783Z,8.00
2023-02-13T05:15:01.519Z,7.55
2023-02-13T05:17:30.595Z,7.15
2023-02-13T05:19:59.137Z,7.55
2023-02-13T05:22:44.580Z,6.53
2023-02-13T05:25:12.304Z,6.60
2023-02-13T05:27:39.982Z,8.13
2023-02-13T05:30:07.696Z,7.68
2023-02-13T05:32:36.803Z,7.35
2023-02-13T05:35:05.110Z,6.47
2023-02-13T05:37:33.049Z,8.20
2023-02-13T05:40:00.794Z,7.03
2023-02-13T05:42:28.457Z,7.38
2023-02-13T05:44:56.106Z,7.53
2023-02-13T05:47:23.829Z,7.60
2023-02-13T05:49:52.936Z,6.30
2023-02-13T05:52:20.648Z,7.53
2023-02-13T05:54:48.464Z,6.50
2023-02-13T05:57:16.327Z,7.70
2023-02-13T05:59:44.042Z,7.00
2023-02-13T06:02:12.116Z,8.60
2023-02-13T06:04:41.269Z,8.20
2023-02-13T06:07:10.320Z,7.55
2023-02-13T06:09:38.127Z,7.03
2023-02-13T06:12:06.324Z,7.35
2023-02-13T06:14:33.996Z,6.90
2023-02-13T06:17:01.912Z,7.40
2023-02-13T06:19:29.745Z,8.10
2023-02-13T06:21:57.444Z,8.07
2023-02-13T06:24:26.447Z,9.00
2023-02-13T06:26:54.205Z,7.03
2023-02-13T06:29:21.890Z,7.90
2023-02-13T06:31:49.690Z,7.03
2023-02-13T06:34:17.407Z,7.85
2023-02-13T06:36:45.098Z,7.20
2023-02-13T06:39:12.853Z,6.53
2023-02-13T06:41:41.921Z,6.70
2023-02-13T06:44:09.732Z,6.68
2023-02-13T06:46:37.433Z,6.35
2023-02-13T06:49:05.150Z,6.47
2023-02-13T06:51:32.901Z,6.70
2023-02-13T06:54:00.522Z,6.03
2023-02-13T06:56:28.200Z,6.30
2023-02-13T06:58:57.198Z,6.20
2023-02-13T07:01:25.049Z,6.47
2023-02-13T07:03:52.884Z,5.75
2023-02-13T07:06:20.896Z,6.78
2023-02-13T07:08:51.326Z,7.53
2023-02-13T07:11:19.796Z,6.30
2023-02-13T07:13:47.425Z,6.30
2023-02-13T07:16:16.761Z,7.00
2023-02-13T07:18:44.509Z,5.85
2023-02-13T07:21:12.196Z,6.10
2023-02-13T07:23:39.972Z,6.13
2023-02-13T07:26:08.032Z,5.90
2023-02-13T07:28:35.789Z,6.53
2023-02-13T07:31:05.631Z,6.80
2023-02-13T07:33:34.944Z,6.32
2023-02-13T07:36:03.608Z,6.18
2023-02-13T07:38:32.865Z,6.50
2023-02-13T07:41:00.917Z,6.60
2023-02-13T07:43:28.983Z,5.90
2023-02-13T07:45:59.905Z,5.60
2023-02-13T07:48:28.178Z,5.90
2023-02-13T07:51:01.698Z,6.40
2023-02-13T07:53:29.939Z,5.72
2023-02-13T07:55:58.059Z,6.65
2023-02-13T07:58:25.922Z,5.85
2023-02-13T08:00:53.622Z,5.72
2023-02-13T08:03:21.282Z,6.22
2023-02-13T08:05:50.182Z,5.50
2023-02-13T08:08:19.192Z,5.63
2023-02-13T08:11:04.243Z,5.32
2023-02-13T08:13:33.117Z,6.20
2023-02-13T08:16:00.897Z,5.78
2023-02-13T08:18:28.623Z,5.32
2023-02-13T08:20:56.282Z,5.38
2023-02-13T08:23:25.507Z,6.20
2023-02-13T08:25:54.907Z,5.20
2023-02-13T08:28:25.922Z,5.35
2023-02-13T08:30:53.652Z,5.28
2023-02-13T08:33:21.478Z,5.32
2023-02-13T08:35:49.163Z,4.93
2023-02-13T08:38:16.958Z,4.90
2023-02-13T08:40:46.033Z,4.90
2023-02-13T08:43:13.794Z,5.30
2023-02-13T08:45:41.652Z,5.38
2023-02-13T08:48:09.434Z,5.07
2023-02-13T08:50:37.523Z,5.43
2023-02-13T08:53:05.425Z,4.53
2023-02-13T08:55:33.297Z,5.05
2023-02-13T08:58:03.226Z,5.05
2023-02-13T09:00:31.663Z,4.75
2023-02-13T09:03:01.885Z,5.03
2023-02-13T09:05:31.242Z,5.20
2023-02-13T09:08:02.630Z,4.78
2023-02-13T09:10:30.713Z,4.45
2023-02-13T09:12:58.556Z,4.32
2023-02-13T09:15:27.788Z,4.25
2023-02-13T09:17:55.517Z,3.88
2023-02-13T09:20:23.283Z,4.55
2023-02-13T09:22:51.040Z,4.40
2023-02-13T09:25:20.191Z,4.38
2023-02-13T09:27:47.996Z,4.32
2023-02-13T09:30:23.127Z,4.18
2023-02-13T09:32:52.445Z,4.13
2023-02-13T09:35:20.984Z,5.43
2023-02-13T09:37:48.920Z,4.78
2023-02-13T09:40:25.375Z,4.15
2023-02-13T09:42:54.641Z,4.68
2023-02-13T09:45:23.332Z,4.60
2023-02-13T09:47:53.339Z,3.80
2023-02-13T09:50:27.245Z,4.80
2023-02-13T09:52:59.383Z,4.38
2023-02-13T09:55:37.245Z,4.00
2023-02-13T09:58:10.570Z,3.60
2023-02-13T10:00:42.357Z,4.45
2023-02-13T10:03:22.554Z,3.85
2023-02-13T10:06:01.314Z,3.90
2023-02-13T10:08:50.789Z,3.80
2023-02-13T10:11:49.398Z,3.95
2023-02-13T10:14:20.280Z,4.40
2023-02-13T10:16:53.470Z,4.13
2023-02-13T10:19:35.420Z,4.00
2023-02-13T10:22:08.098Z,3.60
2023-02-13T10:24:40.878Z,4.13
2023-02-13T10:27:22.296Z,4.90
2023-02-13T10:30:12.454Z,4.00
2023-02-13T10:32:53.141Z,4.57
2023-02-13T10:35:27.505Z,4.80
2023-02-13T10:37:57.314Z,4.05
2023-02-13T10:40:32.552Z,4.10
2023-02-13T10:43:08.462Z,4.45
2023-02-13T10:45:54.931Z,4.65
2023-02-13T10:48:48.462Z,4.00
2023-02-13T10:51:26.198Z,3.78
2023-02-13T10:54:11.053Z,4.20
2023-02-13T10:56:43.688Z,4.47
2023-02-13T10:59:31.902Z,4.97
2023-02-13T11:02:09.414Z,4.43
2023-02-13T11:04:37.146Z,4.57
2023-02-13T11:07:13.759Z,4.07
2023-02-13T11:12:26.568Z,4.45
2023-02-13T11:14:59.391Z,4.68
2023-02-13T11:17:29.738Z,4.50
2023-02-13T11:19:59.120Z,4.45
2023-02-13T11:22:33.214Z,3.97
2023-02-13T11:25:05.109Z,4.05
2023-02-13T11:27:35.943Z,4.40
2023-02-13T11:30:07.246Z,4.10
2023-02-13T11:32:36.304Z,4.22
2023-02-13T11:35:28.153Z,3.92
2023-02-13T11:38:21.477Z,3.75
2023-02-13T11:40:52.700Z,4.00
2023-02-13T11:43:27.098Z,4.05
2023-02-13T11:46:06.779Z,4.93
2023-02-13T11:48:35.407Z,5.38
2023-02-13T11:51:03.630Z,3.92
2023-02-13T11:53:37.421Z,4.30
2023-02-13T11:56:09.424Z,4.18
2023-02-13T11:58:37.848Z,4.47
2023-02-13T12:01:12.726Z,4.13
2023-02-13T12:03:42.882Z,3.58
2023-02-13T12:06:15.367Z,4.78
2023-02-13T12:08:46.869Z,4.05
2023-02-13T12:11:23.371Z,4.15
2023-02-13T12:13:52.842Z,3.53
2023-02-13T12:16:30.962Z,3.78
2023-02-13T12:19:02.090Z,4.00
2023-02-13T12:21:49.524Z,4.38
2023-02-13T12:24:35.667Z,4.45
2023-02-13T12:27:11.316Z,4.43
2023-02-13T12:29:56.668Z,4.10
2023-02-13T12:32:36.597Z,4.53
2023-02-13T12:35:32.703Z,3.53
2023-02-13T12:40:53.920Z,4.55
2023-02-13T12:43:38.101Z,4.50
2023-02-13T12:46:10.905Z,3.97
2023-02-13T12:48:45.100Z,4.40
2023-02-13T12:51:25.713Z,4.00
2023-02-13T12:54:15.220Z,4.15
2023-02-13T12:57:07.140Z,3.78
2023-02-13T12:59:54.017Z,4.38
2023-02-13T13:02:45.378Z,3.60
2023-02-13T13:05:25.828Z,4.30
2023-02-13T13:08:07.128Z,3.88
2023-02-13T13:10:45.509Z,4.78
2023-02-13T13:13:27.971Z,4.60
2023-02-13T13:16:02.931Z,4.68
2023-02-13T13:18:43.948Z,4.43
2023-02-13T13:21:24.027Z,4.22
2023-02-13T13:24:01.118Z,4.28
2023-02-13T13:26:37.178Z,4.28
2023-02-13T13:29:12.720Z,4.18
2023-02-13T13:31:40.887Z,4.18
2023-02-13T13:34:21.903Z,4.05
2023-02-13T13:36:55.463Z,3.63
2023-02-13T13:39:34.357Z,3.67
2023-02-13T13:42:11.160Z,4.20
2023-02-13T13:45:04.754Z,4.00
2023-02-13T13:47:47.189Z,4.22
2023-02-13T13:50:22.128Z,5.07
2023-02-13T13:53:09.085Z,4.20
2023-02-13T13:56:03.491Z,4.35
2023-02-13T13:58:40.653Z,4.80
2023-02-13T14:01:24.362Z,3.67
2023-02-13T14:03:54.277Z,4.15
2023-02-13T14:06:24.404Z,4.35
2023-02-13T14:09:06.082Z,3.72
2023-02-13T14:11:51.498Z,4.55
2023-02-13T14:14:55.930Z,5.60
2023-02-13T14:17:51.974Z,4.05
2023-02-13T14:23:53.071Z,3.67
2023-02-13T14:26:32.377Z,3.08
2023-02-13T14:29:16.256Z,4.40
2023-02-13T14:31:53.314Z,3.17
2023-02-13T14:34:29.602Z,3.42
2023-02-13T14:37:20.895Z,3.70
2023-02-13T14:40:28.405Z,4.43
2023-02-13T14:42:59.470Z,4.13
2023-02-13T14:45:33.223Z,3.85
2023-02-13T14:48:07.639Z,3.20
2023-02-13T14:50:46.604Z,4.47
2023-02-13T14:53:23.554Z,3.85
2023-02-13T14:55:57.860Z,4.25
2023-02-13T14:58:30.189Z,5.50
2023-02-13T15:01:04.177Z,4.63
2023-02-13T15:03:39.046Z,3.72
2023-02-13T15:06:15.388Z,3.83
2023-02-13T15:08:49.076Z,4.30
2023-02-13T15:11:38.112Z,4.03
2023-02-13T15:14:34.297Z,3.83
2023-02-13T15:17:07.174Z,4.15
2023-02-13T15:19:37.962Z,4.20
2023-02-13T15:22:08.069Z,3.70
2023-02-13T15:24:44.661Z,3.92
2023-02-13T15:30:00.294Z,5.10
2023-02-13T15:32:31.627Z,3.78
2023-02-13T15:34:59.810Z,4.03
2023-02-13T15:37:31.305Z,4.70
2023-02-13T15:40:18.238Z,4.35
2023-02-13T15:42:46.518Z,4.75
2023-02-13T15:45:17.354Z,4.53
2023-02-13T15:47:46.144Z,4.57
2023-02-13T15:50:19.520Z,4.05
2023-02-13T15:52:49.139Z,4.38
2023-02-13T15:55:22.016Z,4.10
2023-02-13T15:57:51.215Z,4.03
2023-02-13T16:00:25.703Z,4.30
2023-02-13T16:02:55.866Z,4.00
2023-02-13T16:05:39.050Z,4.88
2023-02-13T16:08:28.257Z,4.47
2023-02-13T16:11:21.617Z,4.82
2023-02-13T16:14:06.984Z,4.20
2023-02-13T16:16:43.088Z,4.82
2023-02-13T16:19:24.000Z,4.80
2023-02-13T16:21:52.884Z,4.90
2023-02-13T16:24:22.797Z,4.53
2023-02-13T16:26:50.757Z,4.55
2023-02-13T16:29:21.680Z,4.18
2023-02-13T16:31:51.238Z,4.95
2023-02-13T16:34:27.277Z,4.15
2023-02-13T16:36:55.648Z,5.13
2023-02-13T16:39:30.121Z,4.95
2023-02-13T16:41:58.568Z,4.18
2023-02-13T16:44:29.445Z,4.43
2023-02-13T16:47:01.396Z,5.13
2023-02-13T16:49:32.453Z,4.70
2023-02-13T16:52:07.778Z,4.63
2023-02-13T16:54:40.305Z,4.60
2023-02-13T16:57:23.541Z,4.45
2023-02-13T17:00:01.797Z,5.10
2023-02-13T17:02:30.180Z,8.43
2023-02-13T17:05:03.077Z,7.05
2023-02-13T17:07:34.602Z,5.88
2023-02-13T17:10:06.491Z,6.32
2023-02-13T17:12:39.153Z,8.77
2023-02-13T17:15:13.272Z,8.95
2023-02-13T17:17:41.680Z,7.65
2023-02-13T17:20:17.345Z,7.72
2023-02-13T17:22:47.821Z,9.82
2023-02-13T17:25:21.818Z,7.20
2023-02-13T17:27:50.602Z,6.50
2023-02-13T17:30:20.497Z,6.53
2023-02-13T17:32:49.363Z,6.55
2023-02-13T17:35:17.870Z,6.03
2023-02-13T17:37:45.789Z,5.25
2023-02-13T17:40:18.952Z,5.82
2023-02-13T17:42:48.518Z,7.28
2023-02-13T17:45:18.713Z,7.13
2023-02-13T17:47:46.404Z,7.18
2023-02-13T17:50:15.024Z,6.43
2023-02-13T17:52:43.289Z,5.60
2023-02-13T17:55:18.965Z,6.28
2023-02-13T17:57:46.915Z,6.37
2023-02-13T18:00:15.844Z,7.25
2023-02-13T18:02:43.570Z,6.55
2023-02-13T18:05:11.980Z,7.28
2023-02-13T18:07:41.435Z,7.82
2023-02-13T18:10:12.116Z,7.60
2023-02-13T18:12:42.406Z,7.13
2023-02-13T18:15:10.696Z,8.18
2023-02-13T18:17:39.107Z,7.68
2023-02-13T18:20:08.432Z,7.63
2023-02-13T18:22:36.115Z,8.55
2023-02-13T18:25:03.905Z,7.95
2023-02-13T18:27:31.861Z,7.90
2023-02-13T18:30:00.897Z,10.00
2023-02-13T18:32:28.879Z,7.53
2023-02-13T18:34:56.553Z,8.57
2023-02-13T18:37:24.290Z,9.05
2023-02-13T18:39:51.946Z,8.10
2023-02-13T18:42:19.846Z,9.00
2023-02-13T18:44:47.526Z,8.30
2023-02-13T18:47:17.322Z,8.52
2023-02-13T18:49:46.362Z,7.35
2023-02-13T18:52:14.083Z,8.23
2023-02-13T18:54:41.770Z,8.45
2023-02-13T18:57:10.121Z,10.73
2023-02-13T18:59:37.789Z,9.82
2023-02-13T19:02:05.498Z,9.63
2023-02-13T19:04:35.762Z,8.52
2023-02-13T19:07:03.454Z,11.85
2023-02-13T19:09:31.118Z,9.18
2023-02-13T19:11:58.765Z,8.25
2023-02-13T19:14:26.961Z,7.82
2023-02-13T19:16:55.682Z,8.85
2023-02-13T19:19:23.381Z,8.50
2023-02-13T19:21:52.725Z,8.98
2023-02-13T19:24:20.357Z,8.32
2023-02-13T19:26:48.314Z,8.88
2023-02-13T19:29:15.956Z,7.97
2023-02-13T19:31:43.862Z,16.95
2023-02-13T19:34:11.588Z,13.43
2023-02-13T19:36:39.494Z,10.80
2023-02-13T19:39:09.083Z,11.38
2023-02-13T19:41:37.173Z,10.43
2023-02-13T19:44:05.259Z,12.25
2023-02-13T19:46:33.986Z,10.07
2023-02-13T19:49:02.521Z,9.82
2023-02-13T19:51:32.048Z,9.85
2023-02-13T19:54:01.566Z,11.68
2023-02-13T19:56:31.377Z,10.93
2023-02-13T19:58:59.264Z,10.40
2023-02-13T20:01:29.445Z,10.68
2023-02-13T20:03:57.721Z,11.85
2023-02-13T20:06:27.891Z,12.68
2023-02-13T20:08:58.664Z,12.50
2023-02-13T20:11:26.880Z,12.30
2023-02-13T20:13:57.401Z,12.50
2023-02-13T20:16:25.316Z,13.07
2023-02-13T20:18:53.360Z,14.02
2023-02-13T20:21:21.359Z,13.23
2023-02-13T20:23:51.259Z,13.02
2023-02-13T20:26:19.329Z,11.88
2023-02-13T20:28:48.075Z,11.30
2023-02-13T20:31:19.291Z,11.95
2023-02-13T20:33:47.708Z,12.30
2023-02-13T20:36:17.511Z,10.80
2023-02-13T20:38:45.686Z,12.10
2023-02-13T20:41:15.862Z,12.52
2023-02-13T20:43:44.155Z,12.38
2023-02-13T20:46:12.303Z,10.10
2023-02-13T20:48:44.610Z,13.80
2023-02-13T20:51:14.243Z,11.43
2023-02-13T20:53:43.302Z,11.85
2023-02-13T20:56:13.509Z,11.25
2023-02-13T20:58:42.828Z,12.68
2023-02-13T21:01:14.813Z,11.25
2023-02-13T21:03:44.424Z,12.50
2023-02-13T21:06:12.753Z,12.80
2023-02-13T21:08:43.181Z,13.48
2023-02-13T21:11:10.913Z,15.75
2023-02-13T21:13:40.067Z,13.90
2023-02-13T21:16:09.869Z,12.48
2023-02-13T21:18:37.817Z,13.57
2023-02-13T21:21:07.965Z,11.52
2023-02-13T21:23:35.709Z,16.05
2023-02-13T21:26:04.719Z,19.05
2023-02-13T21:28:32.928Z,12.38
2023-02-13T21:31:06.629Z,16.52
2023-02-13T21:33:34.494Z,15.57
2023-02-13T21:36:03.288Z,16.40
2023-02-13T21:38:32.327Z,16.70
2023-02-13T21:41:05.838Z,16.30
2023-02-13T21:43:37.471Z,15.32
2023-02-13T21:46:09.403Z,14.55
2023-02-13T21:48:37.491Z,14.30
2023-02-13T21:51:09.210Z,13.13
2023-02-13T21:53:38.397Z,12.05
2023-02-13T21:56:08.883Z,14.75
2023-02-13T21:58:38.241Z,14.82
2023-02-13T22:01:23.809Z,13.32
2023-02-13T22:03:53.650Z,14.57
2023-02-13T22:06:21.785Z,14.88
2023-02-13T22:08:56.226Z,13.35
2023-02-13T22:11:23.876Z,12.90
2023-02-13T22:13:55.659Z,13.02
2023-02-13T22:16:23.573Z,14.52
2023-02-13T22:18:51.303Z,13.23
2023-02-13T22:21:21.584Z,15.82
2023-02-13T22:23:51.909Z,16.30
2023-02-13T22:26:21.359Z,16.02
2023-02-13T22:28:50.040Z,14.25
2023-02-13T22:31:19.335Z,13.85
2023-02-13T22:33:55.355Z,15.10
2023-02-13T22:36:30.833Z,15.00
2023-02-13T22:38:59.920Z,16.35
2023-02-13T22:41:28.193Z,15.38
2023-02-13T22:43:55.948Z,18.13
2023-02-13T22:46:25.440Z,16.83
2023-02-13T22:48:53.863Z,15.45
2023-02-13T22:51:23.590Z,15.88
2023-02-13T22:53:53.788Z,16.30
2023-02-13T22:56:23.160Z,17.85
2023-02-13T22:58:50.828Z,18.40
2023-02-13T23:01:20.936Z,15.48
2023-02-13T23:03:48.836Z,17.15
2023-02-13T23:06:17.224Z,14.45
2023-02-13T23:08:45.067Z,14.38
2023-02-13T23:11:35.095Z,12.85
2023-02-13T23:14:04.465Z,16.40
2023-02-13T23:16:52.615Z,18.30
2023-02-13T23:19:19.635Z,21.42
2023-02-13T23:21:47.396Z,17.75
2023-02-13T23:24:15.205Z,19.52
2023-02-13T23:26:42.991Z,16.83
2023-02-13T23:29:12.100Z,16.90
2023-02-13T23:31:39.918Z,15.70
2023-02-13T23:34:07.699Z,17.15
2023-02-13T23:36:35.851Z,15.32
2023-02-13T23:39:03.559Z,20.65
2023-02-13T23:41:31.448Z,16.83
2023-02-13T23:43:59.113Z,17.42
2023-02-13T23:46:28.206Z,19.15
2023-02-13T23:48:55.959Z,14.05
2023-02-13T23:51:25.524Z,16.63
2023-02-13T23:53:56.007Z,14.05
2023-02-13T23:56:24.626Z,14.65
2023-02-13T23:58:52.374Z,13.60
